地図

経路データ

SID SEASON NUMBER BASIN SUBBASIN NAME ISO_TIME NATURE LAT LON WMO_WIND WMO_PRES WMO_AGENCY TRACK_TYPE DIST2LAND LANDFALL IFLAG USA_AGENCY USA_ATCF_ID USA_LAT USA_LON USA_RECORD USA_STATUS USA_WIND USA_PRES USA_SSHS USA_R34_NE USA_R34_SE USA_R34_SW USA_R34_NW USA_R50_NE USA_R50_SE USA_R50_SW USA_R50_NW USA_R64_NE USA_R64_SE USA_R64_SW USA_R64_NW USA_POCI USA_ROCI USA_RMW USA_EYE TOKYO_LAT TOKYO_LON TOKYO_GRADE TOKYO_WIND TOKYO_PRES TOKYO_R50_DIR TOKYO_R50_LONG TOKYO_R50_SHORT TOKYO_R30_DIR TOKYO_R30_LONG TOKYO_R30_SHORT TOKYO_LAND CMA_LAT CMA_LON CMA_CAT CMA_WIND CMA_PRES HKO_LAT HKO_LON HKO_CAT HKO_WIND HKO_PRES NEWDELHI_LAT NEWDELHI_LON NEWDELHI_GRADE NEWDELHI_WIND NEWDELHI_PRES NEWDELHI_CI NEWDELHI_DP NEWDELHI_POCI REUNION_LAT REUNION_LON REUNION_TYPE REUNION_WIND REUNION_PRES REUNION_TNUM REUNION_CI REUNION_RMW REUNION_R34_NE REUNION_R34_SE REUNION_R34_SW REUNION_R34_NW REUNION_R50_NE REUNION_R50_SE REUNION_R50_SW REUNION_R50_NW REUNION_R64_NE REUNION_R64_SE REUNION_R64_SW REUNION_R64_NW BOM_LAT BOM_LON BOM_TYPE BOM_WIND BOM_PRES BOM_TNUM BOM_CI BOM_RMW BOM_R34_NE BOM_R34_SE BOM_R34_SW BOM_R34_NW BOM_R50_NE BOM_R50_SE BOM_R50_SW BOM_R50_NW BOM_R64_NE BOM_R64_SE BOM_R64_SW BOM_R64_NW BOM_ROCI BOM_POCI BOM_EYE BOM_POS_METHOD BOM_PRES_METHOD NADI_LAT NADI_LON NADI_CAT NADI_WIND NADI_PRES WELLINGTON_LAT WELLINGTON_LON WELLINGTON_WIND WELLINGTON_PRES DS824_LAT DS824_LON DS824_STAGE DS824_WIND DS824_PRES TD9636_LAT TD9636_LON TD9636_STAGE TD9636_WIND TD9636_PRES TD9635_LAT TD9635_LON TD9635_WIND TD9635_PRES TD9635_ROCI NEUMANN_LAT NEUMANN_LON NEUMANN_CLASS NEUMANN_WIND NEUMANN_PRES MLC_LAT MLC_LON MLC_CLASS MLC_WIND MLC_PRES USA_GUST BOM_GUST BOM_GUST_PER REUNION_GUST REUNION_GUST_PER USA_SEAHGT USA_SEARAD_NE USA_SEARAD_SE USA_SEARAD_SW USA_SEARAD_NW STORM_SPEED STORM_DIR
2001141N14068 2001 22 NI AS NOT_NAMED 2001-05-21 06:00:00 TS 13.7000 68.1000 main 639 598 O_____________ jtwc_io IO012001 13.7000 68.1000 TD 25 1002 -1 9 89
2001141N14068 2001 22 NI AS NOT_NAMED 2001-05-21 09:00:00 TS 13.7051 68.5450 main 598 548 P_____________ IO012001 13.7051 68.5450 TD 27 1002 -1 9 93
2001141N14068 2001 22 NI AS NOT_NAMED 2001-05-21 12:00:00 TS 13.6500 69.0000 25 1000 newdelhi main 548 503 O___O_________ jtwc_io IO012001 13.7000 69.0000 TD 30 1002 -1 13.5000 69.0000 D 25 1000 1.50000 4 10 94
2001141N14068 2001 22 NI AS NOT_NAMED 2001-05-21 15:00:00 TS 13.6344 69.5419 main 503 462 P___P_________ IO012001 13.6850 69.4651 TD 32 999 -1 13.5333 69.6955 D 25 1000 4 9 92
2001141N14068 2001 22 NI AS NOT_NAMED 2001-05-21 18:00:00 TS 13.6143 69.9429 25 1000 newdelhi main 462 442 O___O_________ jtwc_io IO012001 13.7000 69.9000 TS 35 997 0 13.5000 70.0000 D 25 1000 1.50000 4 6 89
2001141N14068 2001 22 NI AS NOT_NAMED 2001-05-21 21:00:00 TS 13.6425 70.1362 30 998 newdelhi main 442 359 P___O_________ IO012001 13.7849 70.2725 TS 40 994 0 13.5000 70.0000 DD 30 998 2.00000 6 9 68
2001141N14068 2001 22 NI AS NOT_NAMED 2001-05-22 00:00:00 TS 13.9500 70.8000 30 998 newdelhi main 355 315 O___O_________ jtwc_io IO012001 13.9000 70.6000 TS 45 991 0 14.0000 71.0000 DD 30 998 2.00000 6 11 71
2001141N14068 2001 22 NI AS NOT_NAMED 2001-05-22 03:00:00 TS 13.9925 71.2113 40 996 newdelhi main 315 305 P___O_________ IO012001 13.9850 70.9226 TS 52 985 0 14.0000 71.5000 CS 40 996 2.50000 8 5 79
2001141N14068 2001 22 NI AS NOT_NAMED 2001-05-22 06:00:00 TS 14.0500 71.3500 45 996 newdelhi main 291 281 O___O_________ jtwc_io IO012001 14.1000 71.2000 TS 60 980 0 14.0000 71.5000 CS 45 996 3.00000 10 3 59
2001141N14068 2001 22 NI AS NOT_NAMED 2001-05-22 09:00:00 TS 14.1425 71.4687 45 994 newdelhi main 281 277 P___O_________ IO012001 14.2850 71.4375 TS 62 978 0 14.0000 71.5000 CS 45 994 3.00000 10 3 44
2001141N14068 2001 22 NI AS NOT_NAMED 2001-05-22 12:00:00 TS 14.2500 71.5500 45 992 newdelhi main 263 263 O___O_________ jtwc_io IO012001 14.5000 71.6000 TY 65 976 1 14.0000 71.5000 CS 45 992 3.00000 12 2 33
2001141N14068 2001 22 NI AS NOT_NAMED 2001-05-22 15:00:00 TS 14.3462 71.6012 55 990 newdelhi main 263 259 P___O_________ IO012001 14.6925 71.7025 TY 67 974 1 14.0000 71.5000 SCS 55 990 3.50000 14 2 13
2001141N14068 2001 22 NI AS NOT_NAMED 2001-05-22 18:00:00 TS 14.4500 71.6000 55 988 newdelhi main 256 242 O___O_________ jtwc_io IO012001 14.9000 71.7000 TY 70 972 1 14.0000 71.5000 SCS 55 988 3.50000 16 5 353
2001141N14068 2001 22 NI AS NOT_NAMED 2001-05-22 21:00:00 TS 14.8287 71.5475 65 982 newdelhi main 252 248 P___O_________ IO012001 15.1575 71.5951 TY 72 969 1 14.5000 71.5000 VSCS 65 982 4.00000 22 5 344
2001141N14068 2001 22 NI AS NOT_NAMED 2001-05-23 00:00:00 TS 14.9500 71.4500 65 980 newdelhi main 245 246 O___O_________ jtwc_io IO012001 15.4000 71.4000 TY 75 967 1 14.5000 71.5000 VSCS 65 980 4.00000 22 5 335
2001141N14068 2001 22 NI AS NOT_NAMED 2001-05-23 03:00:00 TS 15.2863 71.3325 77 974 newdelhi main 252 246 P___O_________ IO012001 15.5725 71.1650 TY 77 967 1 15.0000 71.5000 VSCS 77 974 4.50000 30 8 323
2001141N14068 2001 22 NI AS NOT_NAMED 2001-05-23 06:00:00 TS 15.6000 70.9500 90 964 newdelhi main 265 268 O___O_________ jtwc_io IO012001 15.7000 70.9000 TY 80 967 1 15.5000 71.0000 VSCS 90 964 5.00000 40 8 321
2001141N14068 2001 22 NI AS NOT_NAMED 2001-05-23 09:00:00 TS 15.8925 70.8137 90 962 newdelhi main 275 275 P___O_________ IO012001 15.7850 70.6274 TY 82 962 1 16.0000 71.0000 VSCS 90 962 5.00000 40 6 306
2001141N14068 2001 22 NI AS NOT_NAMED 2001-05-23 12:00:00 TS 15.9500 70.4500 90 960 newdelhi main 304 312 O___O_________ jtwc_io IO012001 15.9000 70.4000 TY 85 958 2 16.0000 70.5000 VSCS 90 960 5.00000 40 4 294
2001141N14068 2001 22 NI AS NOT_NAMED 2001-05-23 15:00:00 TS 16.0712 70.3962 90 962 newdelhi main 312 311 P___O_________ IO012001 16.1424 70.2924 TY 90 956 2 16.0000 70.5000 VSCS 90 962 5.00000 40 3 339
2001141N14068 2001 22 NI AS NOT_NAMED 2001-05-23 18:00:00 TS 16.2000 70.3500 90 962 newdelhi main 311 321 O___O_________ jtwc_io IO012001 16.4000 70.2000 TY 95 954 2 16.0000 70.5000 VSCS 90 962 5.00000 40 4 301
2001141N14068 2001 22 NI AS NOT_NAMED 2001-05-23 21:00:00 TS 16.2899 70.0225 90 960 newdelhi main 352 352 P___O_________ IO012001 16.5799 70.0450 TY 97 951 3 16.0000 70.0000 VSCS 90 960 5.00000 40 7 283
2001141N14068 2001 22 NI AS NOT_NAMED 2001-05-24 00:00:00 TS 16.3500 69.6500 90 960 newdelhi main 384 384 O___O_________ jtwc_io IO012001 16.7000 69.8000 TY 100 949 3 16.0000 69.5000 VSCS 90 960 5.00000 40 6 303
2001141N14068 2001 22 NI AS NOT_NAMED 2001-05-24 03:00:00 TS 16.6363 69.4650 102 950 newdelhi main 398 398 P___O_________ IO012001 16.7726 69.4300 TY 105 938 3 16.5000 69.5000 VSCS 102 950 5.50000 52 8 311
2001141N14068 2001 22 NI AS NOT_NAMED 2001-05-24 06:00:00 TS 16.9000 69.0000 102 946 newdelhi main 438 438 O___O_________ jtwc_io IO012001 16.8000 69.0000 TY 110 927 3 17.0000 69.0000 VSCS 102 946 5.50000 52 9 286
2001141N14068 2001 22 NI AS NOT_NAMED 2001-05-24 09:00:00 TS 16.9001 68.5237 115 932 newdelhi main 488 488 P___O_________ IO012001 16.8001 68.5474 TY 110 927 3 17.0000 68.5000 VSCS 115 932 6.00000 66 6 270
2001141N14068 2001 22 NI AS NOT_NAMED 2001-05-24 12:00:00 TS 16.9000 68.3500 115 932 newdelhi main 494 499 O___O_________ jtwc_io IO012001 16.8000 68.2000 TY 110 927 3 17.0000 68.5000 VSCS 115 932 6.00000 66 2 276
2001141N14068 2001 22 NI AS NOT_NAMED 2001-05-24 15:00:00 TS 16.9212 68.2988 115 932 newdelhi main 499 499 P___O_________ IO012001 16.8424 68.0975 TY 105 927 3 17.0000 68.5000 VSCS 115 932 6.00000 66 1 317
2001141N14068 2001 22 NI AS NOT_NAMED 2001-05-24 18:00:00 TS 16.9500 68.3000 115 932 newdelhi main 490 490 O___O_________ jtwc_io IO012001 16.9000 68.1000 TY 100 927 3 17.0000 68.5000 VSCS 115 932 6.00000 66 3 281
2001141N14068 2001 22 NI AS NOT_NAMED 2001-05-24 21:00:00 TS 16.9712 68.0287 115 932 newdelhi main 508 508 P___O_________ IO012001 16.9425 68.0575 TY 95 935 2 17.0000 68.0000 VSCS 115 932 6.00000 66 5 275
2001141N14068 2001 22 NI AS NOT_NAMED 2001-05-25 00:00:00 TS 17.0000 67.7500 115 932 newdelhi main 520 505 O___O_________ jtwc_io IO012001 17.0000 68.0000 TY 90 944 2 17.0000 67.5000 VSCS 115 932 6.00000 66 1 322
2001141N14068 2001 22 NI AS NOT_NAMED 2001-05-25 03:00:00 TS 17.0538 67.9538 102 948 newdelhi main 498 498 P___O_________ IO012001 17.1075 67.9075 TY 90 944 2 17.0000 68.0000 VSCS 102 948 5.50000 52 2 55
2001141N14068 2001 22 NI AS NOT_NAMED 2001-05-25 06:00:00 TS 17.1000 67.9000 90 960 newdelhi main 505 505 O___O_________ jtwc_io IO012001 17.2000 67.8000 TY 90 944 2 17.0000 68.0000 VSCS 90 960 5.00000 40 1 297
2001141N14068 2001 22 NI AS NOT_NAMED 2001-05-25 09:00:00 TS 17.1113 67.8387 90 960 newdelhi main 511 507 P___O_________ IO012001 17.2225 67.6775 TY 85 951 2 17.0000 68.0000 VSCS 90 960 5.00000 40 3 287
2001141N14068 2001 22 NI AS NOT_NAMED 2001-05-25 12:00:00 TS 17.2000 67.5500 77 968 newdelhi main 513 511 O___O_________ jtwc_io IO012001 17.2000 67.6000 TY 80 958 1 17.2000 67.5000 VSCS 77 968 4.50000 30 0 215
2001141N14068 2001 22 NI AS NOT_NAMED 2001-05-25 15:00:00 TS 17.0787 67.8100 77 968 newdelhi main 511 505 P___O_________ IO012001 17.1575 67.6200 TY 77 958 1 17.0000 68.0000 VSCS 77 968 4.50000 30 3 118
2001141N14068 2001 22 NI AS NOT_NAMED 2001-05-25 18:00:00 TS 17.0500 67.8500 77 970 newdelhi main 505 520 O___O_________ jtwc_io IO012001 17.1000 67.7000 TY 75 958 1 17.0000 68.0000 VSCS 77 970 4.50000 30 2 247
2001141N14068 2001 22 NI AS NOT_NAMED 2001-05-25 21:00:00 TS 17.0138 67.6575 77 970 newdelhi main 526 507 P___O_________ IO012001 17.0275 67.8150 TY 70 965 1 17.0000 67.5000 VSCS 77 970 4.50000 30 2 324
2001141N14068 2001 22 NI AS NOT_NAMED 2001-05-26 00:00:00 TS 17.2500 67.7000 65 976 newdelhi main 498 498 O___O_________ jtwc_io IO012001 17.0000 67.9000 TY 65 972 1 17.5000 67.5000 VSCS 65 976 4.00000 20 3 5
2001141N14068 2001 22 NI AS NOT_NAMED 2001-05-26 03:00:00 TS 17.2812 67.6825 55 982 newdelhi main 498 498 P___O_________ IO012001 17.0625 67.8650 TY 62 976 0 17.5000 67.5000 SCS 55 982 3.50000 16 1 343
2001141N14068 2001 22 NI AS NOT_NAMED 2001-05-26 06:00:00 TS 17.3500 67.6500 55 984 newdelhi main 489 495 O___O_________ jtwc_io IO012001 17.2000 67.8000 TS 60 980 0 17.5000 67.5000 SCS 55 984 3.50000 16 2 344
2001141N14068 2001 22 NI AS NOT_NAMED 2001-05-26 09:00:00 TS 17.4425 67.6500 55 984 newdelhi main 495 480 P___O_________ IO012001 17.3850 67.8000 TS 57 982 0 17.5000 67.5000 SCS 55 984 3.50000 16 2 8
2001141N14068 2001 22 NI AS NOT_NAMED 2001-05-26 12:00:00 TS 17.5500 67.6500 55 982 newdelhi main 471 477 O___O_________ jtwc_io IO012001 17.6000 67.8000 TS 55 984 0 17.5000 67.5000 SCS 55 982 3.50000 16 2 353
2001141N14068 2001 22 NI AS NOT_NAMED 2001-05-26 15:00:00 TS 17.6538 67.6288 55 982 newdelhi main 467 467 P___O_________ IO012001 17.8075 67.7575 TS 52 985 0 17.5000 67.5000 SCS 55 982 3.50000 16 2 347
2001141N14068 2001 22 NI AS NOT_NAMED 2001-05-26 18:00:00 TS 17.7500 67.6000 55 982 newdelhi main 458 432 O___O_________ jtwc_io IO012001 18.0000 67.7000 TS 50 987 0 17.5000 67.5000 SCS 55 982 3.50000 16 4 353
2001141N14068 2001 22 NI AS NOT_NAMED 2001-05-26 21:00:00 TS 18.0788 67.5713 55 982 newdelhi main 432 432 P___O_________ IO012001 18.1575 67.6425 TS 50 987 0 18.0000 67.5000 SCS 55 982 3.50000 16 4 355
2001141N14068 2001 22 NI AS NOT_NAMED 2001-05-27 00:00:00 TS 18.1500 67.5500 55 984 newdelhi main 423 423 O___O_________ jtwc_io IO012001 18.3000 67.6000 TS 50 987 0 18.0000 67.5000 SCS 55 984 3.50000 16 1 357
2001141N14068 2001 22 NI AS NOT_NAMED 2001-05-27 03:00:00 TS 18.2212 67.5462 45 986 newdelhi main 430 421 P___O_________ IO012001 18.4425 67.5925 TS 47 989 0 18.0000 67.5000 CS 45 986 3.00000 12 2 0
2001141N14068 2001 22 NI AS NOT_NAMED 2001-05-27 06:00:00 TS 18.3000 67.5500 45 986 newdelhi main 414 413 O___O_________ jtwc_io IO012001 18.6000 67.6000 TS 45 991 0 18.0000 67.5000 CS 45 986 3.00000 10 2 7
2001141N14068 2001 22 NI AS NOT_NAMED 2001-05-27 09:00:00 TS 18.3925 67.5463 45 986 newdelhi main 413 366 P___O_________ IO012001 18.7850 67.5925 TS 45 991 0 18.0000 67.5000 CS 45 986 3.00000 10 7 0
2001141N14068 2001 22 NI AS NOT_NAMED 2001-05-27 12:00:00 TS 19.0000 67.5500 45 988 newdelhi main 358 335 O___O_________ jtwc_io IO012001 19.0000 67.6000 TS 45 991 0 19.0000 67.5000 CS 45 988 3.00000 8 8 20
2001141N14068 2001 22 NI AS NOT_NAMED 2001-05-27 15:00:00 TS 19.1250 67.8250 35 994 newdelhi main 335 320 P___O_________ IO012001 19.2500 67.6499 TS 42 992 0 19.0000 68.0000 CS 35 994 2.50000 8 4 49
2001141N14068 2001 22 NI AS NOT_NAMED 2001-05-27 18:00:00 TS 19.2500 67.8500 35 994 newdelhi main 312 297 O___O_________ jtwc_io IO012001 19.5000 67.7000 TS 40 994 0 19.0000 68.0000 CS 35 994 2.50000 8 5 3
2001141N14068 2001 22 NI AS NOT_NAMED 2001-05-27 21:00:00 TS 19.6075 67.8351 35 994 newdelhi main 297 289 P___O_________ IO012001 19.7149 67.6701 TS 40 994 0 19.5000 68.0000 CS 35 994 2.50000 8 5 0
2001141N14068 2001 22 NI AS NOT_NAMED 2001-05-28 00:00:00 TS 19.7000 67.8500 35 994 newdelhi main 281 251 O___O_________ jtwc_io IO012001 19.9000 67.7000 TS 40 994 0 19.5000 68.0000 CS 35 994 2.50000 8 4 18
2001141N14068 2001 22 NI AS NOT_NAMED 2001-05-28 03:00:00 TS 20.0101 67.9675 35 994 newdelhi main 251 236 P___O_________ IO012001 20.0201 67.9350 TS 35 997 0 20.0000 68.0000 CS 35 994 2.50000 8 5 30
2001141N14068 2001 22 NI AS NOT_NAMED 2001-05-28 06:00:00 TS 20.1000 68.1000 35 996 newdelhi main 236 213 O___O_________ jtwc_io IO012001 20.2000 68.2000 TD 30 1000 -1 20.0000 68.0000 CS 35 996 2.50000 8 3 37
2001141N14068 2001 22 NI AS NOT_NAMED 2001-05-28 09:00:00 TS 20.2812 68.1873 35 996 newdelhi main 213 144 P___O_________ IO012001 20.5624 68.3746 TD 30 1000 -1 20.0000 68.0000 CS 35 996 2.50000 8 10 20
2001141N14068 2001 22 NI AS NOT_NAMED 2001-05-28 12:00:00 TS 21.0000 68.4500 30 996 newdelhi main 136 129 O___O_________ jtwc_io IO012001 21.0000 68.4000 TD 30 1000 -1 21.0000 68.5000 DD 30 996 2.00000 6 9 9
2001141N14068 2001 22 NI AS NOT_NAMED 2001-05-28 15:00:00 TS 21.2113 68.3403 30 996 newdelhi main 136 93 P___O_________ IO012001 21.4227 68.1805 TD 27 998 -1 21.0000 68.5000 DD 30 996 2.00000 6 7 354
2001141N14068 2001 22 NI AS NOT_NAMED 2001-05-28 18:00:00 TS 21.6714 68.3714 25 998 newdelhi main 84 83 O___O_________ jtwc_io IO012001 21.8000 67.9000 TD 25 997 -1 21.5000 69.0000 D 25 998 1.50000 4 7 345
2001141N14068 2001 22 NI AS NOT_NAMED 2001-05-28 21:00:00 TS 21.8816 68.1500 25 998 newdelhi main 84 84 P___O_________ IO012001 22.0724 67.7250 TD 25 999 -1 21.5000 69.0000 D 25 998 1.50000 4 6 321
2001141N14068 2001 22 NI AS NOT_NAMED 2001-05-29 00:00:00 TS 22.1400 67.9600 25 998 newdelhi main 95 93 O___O_________ jtwc_io IO012001 22.3000 67.7000 TD 25 1002 -1 21.5000 69.0000 D 25 998 1.50000 4 7 340
2001141N14068 2001 22 NI AS NOT_NAMED 2001-05-29 03:00:00 TS 22.5425 67.8899 main 105 60 P_____________ IO012001 22.5425 67.8899 TD 22 1003 -1 7 18
2001141N14068 2001 22 NI AS NOT_NAMED 2001-05-29 06:00:00 TS 22.8000 68.2000 main 60 15 O_____________ jtwc_io IO012001 22.8000 68.2000 TD 20 1004 -1 8 46
2001141N14068 2001 22 NI AS NOT_NAMED 2001-05-29 09:00:00 TS 23.0900 68.5073 main 15 0 P_____________ IO012001 23.0900 68.5073 TD 37 1000 0 8 43
2001141N14068 2001 22 NI AS NOT_NAMED 2001-05-29 12:00:00 TS 23.4000 68.8000 main 0 O_____________ jtwc_io IO012001 23.4000 68.8000 TS 55 997 0 25 30 35 40 1005 60 30 8 41

IBTrACS Databaseについて

本データベースは、米国NOAAが公開する1842年以降の世界の熱帯低気圧のベストトラックデータアーカイブInternational Best Track Archive for Climate Stewardship (IBTrACS)を、ウェブで閲覧しやすい形式に変換したものです。

最終更新日:2021-12-03